createdAt,value
2022-12-17T00:02:18.501Z,2.20
2022-12-17T00:05:04.276Z,1.33
2022-12-17T00:07:50.473Z,5.03
2022-12-17T00:10:36.560Z,6.63
2022-12-17T00:13:22.722Z,8.43
2022-12-17T00:16:12.100Z,12.57
2022-12-17T00:18:58.156Z,12.00
2022-12-17T00:21:44.206Z,12.73
2022-12-17T00:24:30.729Z,20.90
2022-12-17T00:27:17.054Z,19.43
2022-12-17T00:30:02.953Z,12.70
2022-12-17T00:32:49.149Z,19.77
2022-12-17T00:35:35.025Z,17.17
2022-12-17T00:38:20.784Z,18.67
2022-12-17T00:41:11.797Z,15.63
2022-12-17T00:43:58.445Z,12.27
2022-12-17T00:46:44.653Z,13.53
2022-12-17T00:49:31.042Z,2.37
2022-12-17T00:52:17.198Z,8.53
2022-12-17T00:55:03.281Z,8.93
2022-12-17T00:57:49.328Z,17.20
2022-12-17T01:00:35.727Z,16.97
2022-12-17T01:03:26.953Z,15.80
2022-12-17T01:06:13.010Z,8.87
2022-12-17T01:08:59.164Z,9.37
2022-12-17T01:11:45.155Z,11.93
2022-12-17T01:14:31.591Z,17.87
2022-12-17T01:17:17.958Z,17.40
2022-12-17T01:20:03.986Z,1.60
2022-12-17T01:22:50.488Z,22.70
2022-12-17T01:25:36.932Z,12.60
2022-12-17T01:28:23.218Z,10.90
2022-12-17T01:31:09.264Z,4.53
2022-12-17T01:33:55.773Z,9.57
2022-12-17T01:36:41.773Z,8.67
2022-12-17T01:39:27.710Z,4.73
2022-12-17T01:42:13.627Z,12.00
2022-12-17T01:45:12.176Z,6.47
2022-12-17T01:48:05.307Z,15.23
2022-12-17T01:50:55.629Z,10.87
2022-12-17T01:53:45.712Z,9.13
2022-12-17T01:56:32.390Z,8.60
2022-12-17T01:59:19.014Z,6.40
2022-12-17T02:02:05.286Z,4.20
2022-12-17T02:04:51.567Z,3.07
2022-12-17T02:07:55.352Z,17.70
2022-12-17T02:10:48.887Z,24.07
2022-12-17T02:13:39.681Z,21.83
2022-12-17T02:16:38.449Z,16.83
2022-12-17T02:19:47.664Z,23.17
2022-12-17T02:22:57.826Z,10.87
2022-12-17T02:26:16.714Z,10.00
2022-12-17T02:29:06.144Z,8.60
2022-12-17T02:31:58.428Z,17.90
2022-12-17T02:34:55.223Z,14.70
2022-12-17T02:37:41.414Z,18.60
2022-12-17T02:40:28.049Z,14.33
2022-12-17T02:43:14.171Z,17.47
2022-12-17T02:46:00.230Z,18.13
2022-12-17T02:48:47.219Z,17.30
2022-12-17T02:51:33.813Z,21.53
2022-12-17T02:54:23.053Z,19.40
2022-12-17T02:57:09.413Z,15.03
2022-12-17T02:59:55.515Z,13.47
2022-12-17T03:02:42.588Z,17.17
2022-12-17T03:05:45.295Z,17.67
2022-12-17T03:08:32.701Z,14.67
2022-12-17T03:11:18.646Z,22.63
2022-12-17T03:14:04.731Z,22.50
2022-12-17T03:16:50.780Z,22.30
2022-12-17T03:19:39.566Z,20.57
2022-12-17T03:22:25.739Z,25.47
2022-12-17T03:25:12.136Z,22.20
2022-12-17T03:27:58.188Z,19.47
2022-12-17T03:30:48.638Z,15.00
2022-12-17T03:33:35.623Z,21.40
2022-12-17T03:36:22.589Z,23.43
2022-12-17T03:39:09.059Z,17.43
2022-12-17T03:41:55.025Z,5.67
2022-12-17T03:44:41.281Z,26.00
2022-12-17T03:47:27.369Z,12.77
2022-12-17T03:50:13.493Z,14.10
2022-12-17T03:52:59.671Z,20.50
2022-12-17T03:55:46.099Z,4.90
2022-12-17T03:58:32.068Z,10.80
2022-12-17T04:01:18.149Z,17.20
2022-12-17T04:04:04.518Z,10.50
2022-12-17T04:06:52.022Z,14.27
2022-12-17T04:09:38.303Z,20.77
2022-12-17T04:12:24.592Z,20.57
2022-12-17T04:15:10.564Z,17.00
2022-12-17T04:17:56.734Z,7.33
2022-12-17T04:20:42.943Z,15.70
2022-12-17T04:23:29.278Z,18.23
2022-12-17T04:26:15.686Z,21.93
2022-12-17T04:29:01.989Z,16.50
2022-12-17T04:31:47.863Z,14.53
2022-12-17T04:34:34.351Z,12.10
2022-12-17T04:37:20.678Z,13.93
2022-12-17T04:40:06.718Z,17.47
2022-12-17T04:42:52.631Z,16.57
2022-12-17T04:45:38.422Z,18.00
2022-12-17T04:48:26.896Z,4.80
2022-12-17T04:51:13.279Z,16.07
2022-12-17T04:53:59.221Z,15.97
2022-12-17T04:56:45.433Z,7.03
2022-12-17T04:59:31.780Z,5.40
2022-12-17T05:02:18.274Z,7.50
2022-12-17T05:05:04.482Z,16.20
2022-12-17T05:07:50.369Z,1.90
2022-12-17T05:10:36.764Z,13.10
2022-12-17T05:13:22.694Z,14.60
2022-12-17T05:16:14.694Z,15.83
2022-12-17T05:19:01.414Z,15.30
2022-12-17T05:21:47.776Z,16.23
2022-12-17T05:24:33.905Z,16.77
2022-12-17T05:27:20.035Z,18.10
2022-12-17T05:30:06.446Z,18.07
2022-12-17T05:32:52.610Z,15.53
2022-12-17T05:35:38.547Z,12.63
2022-12-17T05:38:29.492Z,16.30
2022-12-17T05:41:17.275Z,15.23
2022-12-17T05:44:03.586Z,13.70
2022-12-17T05:46:49.797Z,15.90
2022-12-17T05:49:35.872Z,17.83
2022-12-17T05:52:22.094Z,16.37
2022-12-17T05:55:08.400Z,17.57
2022-12-17T05:57:56.596Z,1.33
2022-12-17T06:00:42.896Z,9.57
2022-12-17T06:03:29.143Z,15.97
2022-12-17T06:06:16.255Z,20.17
2022-12-17T06:09:02.257Z,8.83
2022-12-17T06:11:48.133Z,14.90
2022-12-17T06:14:34.211Z,2.07
2022-12-17T06:17:20.149Z,18.63
2022-12-17T06:20:06.478Z,23.63
2022-12-17T06:22:52.573Z,19.90
2022-12-17T06:25:38.695Z,14.87
2022-12-17T06:28:24.652Z,17.07
2022-12-17T06:31:12.291Z,18.97
2022-12-17T06:33:59.107Z,14.40
2022-12-17T06:36:45.120Z,19.03
2022-12-17T06:39:31.379Z,13.53
2022-12-17T06:42:17.246Z,16.67
2022-12-17T06:45:02.954Z,17.10
2022-12-17T06:47:49.215Z,19.67
2022-12-17T06:50:35.101Z,18.00
2022-12-17T06:53:22.835Z,16.17
2022-12-17T06:56:09.499Z,13.83
2022-12-17T06:58:58.037Z,16.47
2022-12-17T07:01:44.680Z,2.87
2022-12-17T07:04:31.137Z,17.13
2022-12-17T07:07:19.763Z,17.63
2022-12-17T07:10:12.267Z,17.87
2022-12-17T07:13:00.222Z,19.60
2022-12-17T07:15:46.441Z,14.17
2022-12-17T07:18:32.878Z,16.33
2022-12-17T07:21:19.175Z,18.90
2022-12-17T07:24:05.578Z,17.53
2022-12-17T07:26:51.997Z,11.60
2022-12-17T07:29:38.377Z,12.37
2022-12-17T07:32:24.454Z,17.23
2022-12-17T07:35:10.821Z,14.30
2022-12-17T07:37:57.161Z,15.50
2022-12-17T07:40:43.162Z,15.97
2022-12-17T07:43:33.117Z,14.10
2022-12-17T07:46:22.542Z,15.30
2022-12-17T07:49:08.877Z,13.00
2022-12-17T07:51:54.891Z,16.33
2022-12-17T07:54:41.269Z,16.60
2022-12-17T07:57:27.057Z,14.17
2022-12-17T08:00:13.105Z,16.07
2022-12-17T08:02:59.271Z,11.20
2022-12-17T08:05:45.701Z,14.63
2022-12-17T08:08:33.230Z,18.23
2022-12-17T08:11:19.490Z,20.80
2022-12-17T08:14:05.668Z,17.67
2022-12-17T08:16:51.690Z,20.33
2022-12-17T08:19:38.451Z,18.70
2022-12-17T08:22:24.528Z,16.97
2022-12-17T08:25:10.621Z,16.50
2022-12-17T08:27:56.800Z,18.10
2022-12-17T08:30:43.274Z,19.00
2022-12-17T08:33:30.000Z,19.10
2022-12-17T08:36:16.925Z,21.60
2022-12-17T08:39:04.235Z,18.20
2022-12-17T08:41:54.470Z,19.63
2022-12-17T08:44:41.953Z,17.60
2022-12-17T08:47:28.198Z,19.83
2022-12-17T08:50:15.993Z,18.33
2022-12-17T08:53:02.484Z,16.23
2022-12-17T08:55:48.650Z,16.50
2022-12-17T08:58:34.541Z,17.10
2022-12-17T09:01:21.396Z,20.17
2022-12-17T09:04:07.689Z,21.30
2022-12-17T09:06:54.903Z,15.67
2022-12-17T09:09:42.824Z,14.83
2022-12-17T09:12:28.961Z,23.83
2022-12-17T09:15:14.975Z,22.93
2022-12-17T09:18:01.317Z,23.00
2022-12-17T09:20:47.677Z,23.50
2022-12-17T09:23:37.261Z,21.13
2022-12-17T09:26:23.973Z,23.53
2022-12-17T09:29:10.452Z,19.80
2022-12-17T09:31:56.652Z,18.00
2022-12-17T09:34:42.704Z,21.60
2022-12-17T09:37:29.164Z,23.17
2022-12-17T09:40:15.036Z,21.87
2022-12-17T09:43:19.930Z,19.60
2022-12-17T09:46:28.967Z,15.83
2022-12-17T09:49:25.005Z,21.67
2022-12-17T09:52:10.988Z,19.97
2022-12-17T09:55:05.641Z,20.37
2022-12-17T09:57:54.282Z,21.67
2022-12-17T10:00:43.723Z,23.90
2022-12-17T10:03:39.647Z,15.47
2022-12-17T10:06:37.479Z,18.97
2022-12-17T10:09:32.381Z,20.27
2022-12-17T10:12:37.105Z,17.10
2022-12-17T10:15:24.274Z,19.97
2022-12-17T10:18:10.802Z,17.90
2022-12-17T10:21:02.368Z,22.43
2022-12-17T10:23:52.314Z,15.27
2022-12-17T10:26:45.226Z,19.47
2022-12-17T10:29:40.163Z,15.77
2022-12-17T10:32:35.231Z,22.10
2022-12-17T10:36:06.138Z,18.40
2022-12-17T10:38:51.979Z,19.33
2022-12-17T10:41:45.273Z,19.73
2022-12-17T10:44:52.594Z,17.77
2022-12-17T10:47:40.706Z,19.57
2022-12-17T10:50:39.486Z,16.57
2022-12-17T10:53:38.272Z,19.90
2022-12-17T10:56:25.009Z,22.17
2022-12-17T10:59:12.854Z,18.47
2022-12-17T11:02:00.932Z,22.33
2022-12-17T11:04:48.766Z,26.03
2022-12-17T11:07:50.265Z,20.17
2022-12-17T11:10:42.372Z,19.97
2022-12-17T11:13:33.406Z,21.57
2022-12-17T11:16:20.337Z,19.97
2022-12-17T11:19:17.806Z,20.27
2022-12-17T11:22:11.042Z,21.67
2022-12-17T11:25:18.613Z,19.13
2022-12-17T11:28:09.959Z,21.77
2022-12-17T11:31:13.057Z,19.80
2022-12-17T11:34:14.522Z,24.67
2022-12-17T11:37:32.783Z,21.50
2022-12-17T11:40:43.239Z,19.00
2022-12-17T11:43:40.431Z,23.17
2022-12-17T11:46:53.309Z,18.07
2022-12-17T11:49:47.789Z,21.07
2022-12-17T11:52:48.818Z,22.07
2022-12-17T11:55:38.869Z,20.30
2022-12-17T11:58:52.842Z,23.13
2022-12-17T12:01:48.360Z,18.43
2022-12-17T12:05:08.334Z,20.57
2022-12-17T12:08:24.244Z,22.00
2022-12-17T12:11:42.619Z,23.17
2022-12-17T12:14:43.603Z,24.70
2022-12-17T12:17:47.940Z,20.10
2022-12-17T12:21:05.157Z,19.37
2022-12-17T12:24:09.504Z,23.03
2022-12-17T12:27:08.692Z,21.03
2022-12-17T12:30:15.009Z,23.87
2022-12-17T12:33:18.747Z,25.13
2022-12-17T12:36:05.297Z,25.20
2022-12-17T12:39:01.327Z,23.63
2022-12-17T12:42:15.384Z,22.70
2022-12-17T12:45:07.219Z,21.03
2022-12-17T12:48:10.859Z,19.20
2022-12-17T12:51:34.589Z,24.13
2022-12-17T12:54:39.566Z,21.93
2022-12-17T12:57:54.310Z,20.80
2022-12-17T13:01:10.294Z,22.13
2022-12-17T13:03:58.764Z,24.67
2022-12-17T13:06:43.864Z,27.63
2022-12-17T13:09:18.195Z,24.73
2022-12-17T13:11:53.965Z,25.17
2022-12-17T13:14:31.537Z,26.43
2022-12-17T13:17:05.950Z,22.87
2022-12-17T13:19:39.139Z,23.03
2022-12-17T13:22:20.083Z,28.37
2022-12-17T13:24:54.053Z,22.40
2022-12-17T13:27:39.241Z,21.50
2022-12-17T13:30:24.028Z,22.87
2022-12-17T13:33:36.698Z,22.57
2022-12-17T13:36:41.707Z,26.33
2022-12-17T13:39:41.538Z,23.80
2022-12-17T13:42:26.006Z,19.90
2022-12-17T13:44:58.119Z,20.73
2022-12-17T13:47:28.079Z,24.20
2022-12-17T13:50:32.242Z,29.43
2022-12-17T13:52:45.355Z,24.90
2022-12-17T13:55:22.044Z,25.37
2022-12-17T13:57:50.614Z,24.03
2022-12-17T14:00:23.173Z,24.87
2022-12-17T14:02:50.904Z,23.80
2022-12-17T14:05:30.180Z,27.43
2022-12-17T14:08:03.388Z,23.83
2022-12-17T14:10:31.338Z,27.33
2022-12-17T14:13:14.287Z,22.67
2022-12-17T14:15:53.034Z,30.20
2022-12-17T14:18:21.563Z,27.17
2022-12-17T14:20:52.686Z,26.40
2022-12-17T14:23:29.949Z,23.90
2022-12-17T14:25:58.418Z,21.87
2022-12-17T14:28:35.515Z,24.70
2022-12-17T14:31:26.582Z,21.83
2022-12-17T14:34:08.302Z,17.40
2022-12-17T14:36:44.315Z,20.70
2022-12-17T14:39:27.472Z,22.77
2022-12-17T14:42:16.359Z,22.53
2022-12-17T14:44:53.166Z,27.33
2022-12-17T14:47:32.332Z,22.37
2022-12-17T14:50:12.828Z,20.93
2022-12-17T14:52:49.570Z,21.60
2022-12-17T14:55:38.685Z,24.03
2022-12-17T14:58:16.275Z,20.50
2022-12-17T15:00:54.677Z,19.77
2022-12-17T15:03:44.227Z,24.10
2022-12-17T15:06:15.757Z,21.73
2022-12-17T15:08:47.001Z,26.27
2022-12-17T15:11:17.370Z,21.57
2022-12-17T15:13:45.020Z,22.70
2022-12-17T15:16:13.502Z,21.67
2022-12-17T15:18:41.396Z,21.17
2022-12-17T15:21:11.800Z,20.90
2022-12-17T15:23:43.737Z,20.53
2022-12-17T15:26:12.296Z,22.20
2022-12-17T15:28:40.134Z,26.20
2022-12-17T15:31:10.627Z,22.77
2022-12-17T15:33:38.126Z,22.57
2022-12-17T15:36:06.172Z,23.67
2022-12-17T15:38:34.226Z,26.47
2022-12-17T15:41:23.014Z,25.37
2022-12-17T15:43:50.597Z,22.13
2022-12-17T15:46:18.247Z,26.33
2022-12-17T15:48:50.099Z,24.93
2022-12-17T15:51:21.335Z,27.23
2022-12-17T15:53:48.824Z,27.07
2022-12-17T15:56:22.990Z,24.37
2022-12-17T15:58:50.472Z,20.20
2022-12-17T16:01:18.908Z,22.80
2022-12-17T16:03:46.683Z,18.80
2022-12-17T16:06:14.078Z,24.23
2022-12-17T16:08:41.782Z,23.57
2022-12-17T16:11:10.451Z,24.13
2022-12-17T16:13:38.614Z,24.60
2022-12-17T16:16:07.063Z,20.47
2022-12-17T16:18:35.678Z,19.27
2022-12-17T16:21:08.147Z,18.40
2022-12-17T16:23:36.366Z,16.13
2022-12-17T16:26:06.168Z,19.87
2022-12-17T16:28:34.165Z,17.20
2022-12-17T16:31:10.934Z,10.70
2022-12-17T16:33:40.842Z,13.63
2022-12-17T16:36:11.618Z,16.10
2022-12-17T16:38:47.256Z,12.83
2022-12-17T16:41:16.087Z,12.53
2022-12-17T16:43:43.764Z,14.30
2022-12-17T16:46:23.443Z,10.40
2022-12-17T16:48:50.915Z,13.43
2022-12-17T16:51:28.156Z,10.57
2022-12-17T16:53:57.104Z,9.10
2022-12-17T16:56:27.887Z,15.90
2022-12-17T16:58:56.430Z,7.27
2022-12-17T17:01:27.473Z,9.90
2022-12-17T17:03:55.561Z,11.23
2022-12-17T17:06:27.736Z,9.70
2022-12-17T17:08:57.736Z,11.23
2022-12-17T17:11:26.337Z,9.10
2022-12-17T17:13:54.928Z,9.63
2022-12-17T17:16:24.509Z,6.30
2022-12-17T17:18:52.427Z,7.23
2022-12-17T17:21:19.813Z,7.47
2022-12-17T17:23:48.660Z,6.87
2022-12-17T17:26:17.042Z,5.80
2022-12-17T17:28:46.295Z,4.03
2022-12-17T17:31:15.237Z,6.83
2022-12-17T17:33:46.676Z,5.83
2022-12-17T17:36:19.620Z,4.63
2022-12-17T17:38:48.591Z,4.70
2022-12-17T17:41:18.999Z,5.53
2022-12-17T17:43:47.455Z,4.13
2022-12-17T17:46:19.654Z,3.53
2022-12-17T17:48:50.616Z,4.83
2022-12-17T17:51:52.091Z,4.43
2022-12-17T17:54:14.399Z,4.10
2022-12-17T17:56:43.184Z,3.07
2022-12-17T17:59:13.015Z,4.13
2022-12-17T18:01:42.869Z,6.03
2022-12-17T18:04:13.521Z,4.37
2022-12-17T18:06:57.501Z,5.23
2022-12-17T18:09:29.898Z,4.30
2022-12-17T18:11:57.446Z,3.50
2022-12-17T18:14:24.842Z,4.70
2022-12-17T18:16:52.299Z,5.73
2022-12-17T18:19:22.872Z,5.23
2022-12-17T18:21:50.383Z,4.67
2022-12-17T18:24:22.879Z,3.77
2022-12-17T18:26:52.178Z,4.20
2022-12-17T18:29:24.941Z,5.30
2022-12-17T18:31:52.823Z,3.87
2022-12-17T18:34:23.611Z,2.90
2022-12-17T18:36:51.022Z,4.07
2022-12-17T18:39:23.917Z,7.27
2022-12-17T18:42:10.707Z,4.73
2022-12-17T18:44:41.620Z,6.00
2022-12-17T18:47:10.484Z,5.17
2022-12-17T18:49:38.271Z,5.83
2022-12-17T18:52:09.342Z,2.37
2022-12-17T18:54:39.995Z,3.73
2022-12-17T18:57:07.321Z,5.33
2022-12-17T18:59:34.808Z,3.90
2022-12-17T19:02:02.463Z,3.77
2022-12-17T19:04:30.073Z,1.90
2022-12-17T19:06:57.665Z,3.10
2022-12-17T19:09:29.189Z,3.33
2022-12-17T19:11:57.885Z,2.43
2022-12-17T19:14:25.902Z,5.53
2022-12-17T19:16:55.067Z,3.60
2022-12-17T19:19:24.558Z,5.83
2022-12-17T19:21:53.693Z,2.73
2022-12-17T19:24:22.222Z,2.23
2022-12-17T19:26:50.312Z,3.80
2022-12-17T19:29:19.406Z,3.77
2022-12-17T19:31:47.100Z,2.40
2022-12-17T19:34:16.009Z,3.57
2022-12-17T19:36:44.000Z,5.13
2022-12-17T19:39:13.750Z,4.37
2022-12-17T19:41:41.320Z,3.43
2022-12-17T19:44:12.736Z,4.83
2022-12-17T19:46:40.829Z,3.60
2022-12-17T19:49:10.784Z,5.07
2022-12-17T19:51:40.823Z,2.30
2022-12-17T19:54:09.389Z,3.27
2022-12-17T19:56:37.142Z,3.63
2022-12-17T19:59:07.561Z,4.23
2022-12-17T20:01:46.650Z,3.30
2022-12-17T20:04:16.073Z,5.33
2022-12-17T20:06:44.748Z,4.67
2022-12-17T20:09:12.887Z,3.33
2022-12-17T20:11:40.517Z,2.13
2022-12-17T20:14:17.233Z,3.87
2022-12-17T20:16:47.822Z,4.13
2022-12-17T20:19:21.085Z,3.83
2022-12-17T20:21:49.123Z,5.07
2022-12-17T20:24:16.984Z,3.97
2022-12-17T20:26:45.336Z,6.33
2022-12-17T20:29:12.913Z,5.50
2022-12-17T20:31:42.395Z,5.07
2022-12-17T20:34:15.261Z,2.83
2022-12-17T20:36:44.011Z,2.50
2022-12-17T20:39:12.468Z,3.43
2022-12-17T20:41:40.660Z,4.97
2022-12-17T20:44:12.238Z,3.27
2022-12-17T20:46:41.372Z,4.13
2022-12-17T20:49:10.787Z,5.00
2022-12-17T20:51:38.434Z,3.10
2022-12-17T20:54:06.168Z,1.70
2022-12-17T20:56:35.096Z,2.90
2022-12-17T20:59:09.000Z,1.93
2022-12-17T21:01:37.438Z,2.00
2022-12-17T21:04:09.004Z,2.63
2022-12-17T21:06:39.082Z,4.47
2022-12-17T21:09:07.229Z,3.33
2022-12-17T21:11:35.978Z,3.60
2022-12-17T21:14:12.890Z,2.80
2022-12-17T21:16:41.321Z,3.83
2022-12-17T21:19:12.551Z,3.40
2022-12-17T21:21:40.064Z,1.80
2022-12-17T21:24:08.398Z,3.23
2022-12-17T21:26:38.058Z,1.53
2022-12-17T21:29:06.877Z,1.50
2022-12-17T21:31:40.852Z,3.07
2022-12-17T21:34:12.805Z,3.53
2022-12-17T21:36:40.599Z,2.03
2022-12-17T21:39:09.906Z,0.70
2022-12-17T21:41:44.479Z,2.87
2022-12-17T21:44:15.261Z,2.40
2022-12-17T21:46:45.582Z,1.43
2022-12-17T21:49:17.982Z,3.37
2022-12-17T21:51:45.517Z,0.93
2022-12-17T21:54:19.011Z,1.97
2022-12-17T21:56:48.020Z,4.10
2022-12-17T21:59:15.746Z,3.50
2022-12-17T22:01:43.480Z,2.67
2022-12-17T22:04:11.398Z,5.63
2022-12-17T22:06:52.076Z,3.03
2022-12-17T22:09:40.953Z,5.43
2022-12-17T22:12:32.433Z,8.43
2022-12-17T22:15:01.358Z,5.57
2022-12-17T22:17:29.322Z,4.67
2022-12-17T22:19:56.691Z,1.07
2022-12-17T22:22:24.483Z,3.07
2022-12-17T22:24:51.896Z,3.77
2022-12-17T22:27:19.453Z,6.03
2022-12-17T22:30:05.308Z,5.90
2022-12-17T22:32:50.970Z,4.37
2022-12-17T22:36:38.495Z,4.33
2022-12-17T22:40:44.334Z,5.27
2022-12-17T22:44:37.956Z,3.77
2022-12-17T22:44:48.657Z,1.67
2022-12-17T22:46:32.395Z,4.37
2022-12-17T22:48:59.945Z,4.13
2022-12-17T22:51:34.517Z,6.60
2022-12-17T22:54:08.817Z,6.57
2022-12-17T22:57:34.217Z,6.03
2022-12-17T22:59:25.190Z,9.47
2022-12-17T23:01:52.877Z,4.93
2022-12-17T23:04:21.636Z,5.47
2022-12-17T23:06:49.126Z,4.87
2022-12-17T23:09:19.546Z,6.30
2022-12-17T23:11:48.901Z,5.23
2022-12-17T23:14:17.878Z,5.63
2022-12-17T23:16:45.857Z,4.23
2022-12-17T23:19:13.518Z,5.30
2022-12-17T23:21:41.481Z,6.27
2022-12-17T23:24:09.308Z,2.47
2022-12-17T23:26:37.234Z,8.13
2022-12-17T23:29:08.709Z,6.40
2022-12-17T23:31:39.009Z,8.30
2022-12-17T23:34:07.490Z,6.53
2022-12-17T23:36:36.493Z,6.87
2022-12-17T23:39:04.535Z,7.00
2022-12-17T23:41:32.657Z,4.17
2022-12-17T23:44:00.252Z,8.07
2022-12-17T23:46:29.604Z,6.23
2022-12-17T23:48:57.458Z,5.00
2022-12-17T23:51:26.095Z,4.07
2022-12-17T23:53:53.460Z,6.40
2022-12-17T23:56:23.873Z,5.90
2022-12-17T23:58:56.949Z,5.20
